createdAt,value
2023-03-06T00:02:14.294Z,2.97
2023-03-06T00:07:05.883Z,4.32
2023-03-06T00:11:57.608Z,2.67
2023-03-06T00:16:49.253Z,3.50
2023-03-06T00:21:43.775Z,2.47
2023-03-06T00:26:36.735Z,2.53
2023-03-06T00:31:28.524Z,3.35
2023-03-06T00:36:20.130Z,3.75
2023-03-06T00:41:13.016Z,3.80
2023-03-06T00:46:05.819Z,2.92
2023-03-06T00:50:57.481Z,3.03
2023-03-06T00:55:50.503Z,3.60
2023-03-06T01:00:42.318Z,3.40
2023-03-06T01:05:35.900Z,3.95
2023-03-06T01:10:28.227Z,2.70
2023-03-06T01:15:20.458Z,2.03
2023-03-06T01:20:17.068Z,2.83
2023-03-06T01:25:09.226Z,2.42
2023-03-06T01:30:00.855Z,1.83
2023-03-06T01:34:52.596Z,2.38
2023-03-06T01:39:44.344Z,1.73
2023-03-06T01:44:35.929Z,2.15
2023-03-06T01:49:38.691Z,2.10
2023-03-06T01:54:47.482Z,1.98
2023-03-06T01:59:42.400Z,2.58
2023-03-06T02:04:35.285Z,3.55
2023-03-06T02:09:30.197Z,1.60
2023-03-06T02:14:22.166Z,2.47
2023-03-06T02:19:32.156Z,1.90
2023-03-06T02:24:48.661Z,3.03
2023-03-06T02:29:40.518Z,1.65
2023-03-06T02:34:38.183Z,1.50
2023-03-06T02:39:33.739Z,1.92
2023-03-06T02:44:28.126Z,1.52
2023-03-06T02:49:19.754Z,2.60
2023-03-06T02:54:11.431Z,2.28
2023-03-06T02:59:03.598Z,3.65
2023-03-06T03:03:55.526Z,1.70
2023-03-06T03:08:47.103Z,2.42
2023-03-06T03:13:38.802Z,3.28
2023-03-06T03:18:30.748Z,2.72
2023-03-06T03:23:22.842Z,1.83
2023-03-06T03:28:14.460Z,2.45
2023-03-06T03:33:06.274Z,3.78
2023-03-06T03:37:57.911Z,2.30
2023-03-06T03:42:49.540Z,2.83
2023-03-06T03:47:41.314Z,1.85
2023-03-06T03:52:33.080Z,3.22
2023-03-06T03:57:24.666Z,2.08
2023-03-06T04:02:17.170Z,2.55
2023-03-06T04:07:09.641Z,2.50
2023-03-06T04:12:01.402Z,2.60
2023-03-06T04:16:52.964Z,3.53
2023-03-06T04:21:44.582Z,2.63
2023-03-06T04:26:36.980Z,4.13
2023-03-06T04:31:28.718Z,2.50
2023-03-06T04:36:34.386Z,2.78
2023-03-06T04:41:26.170Z,2.00
2023-03-06T04:46:17.933Z,3.10
2023-03-06T04:51:12.813Z,2.30
2023-03-06T04:56:04.855Z,2.40
2023-03-06T05:00:56.465Z,1.85
2023-03-06T05:05:48.131Z,1.65
2023-03-06T05:10:39.889Z,2.13
2023-03-06T05:15:31.604Z,2.00
2023-03-06T05:20:23.200Z,1.45
2023-03-06T05:25:14.850Z,3.00
2023-03-06T05:30:07.679Z,2.47
2023-03-06T05:34:59.389Z,2.03
2023-03-06T05:39:51.615Z,2.85
2023-03-06T05:44:43.281Z,1.98
2023-03-06T05:49:36.294Z,2.50
2023-03-06T05:54:28.005Z,1.45
2023-03-06T05:59:19.626Z,1.83
2023-03-06T06:04:11.653Z,1.17
2023-03-06T06:09:03.694Z,1.08
2023-03-06T06:13:55.405Z,1.17
2023-03-06T06:18:47.114Z,1.67
2023-03-06T06:23:38.880Z,1.33
2023-03-06T06:28:31.452Z,1.60
2023-03-06T06:33:24.072Z,1.83
2023-03-06T06:38:15.776Z,1.38
2023-03-06T06:43:07.602Z,1.35
2023-03-06T06:47:59.297Z,1.50
2023-03-06T06:52:51.031Z,1.30
2023-03-06T06:57:43.631Z,4.50
2023-03-06T07:02:35.323Z,2.35
2023-03-06T07:07:27.301Z,1.23
2023-03-06T07:12:18.899Z,1.20
2023-03-06T07:17:10.504Z,1.55
2023-03-06T07:22:02.552Z,1.27
2023-03-06T07:26:54.196Z,3.20
2023-03-06T07:31:45.944Z,2.08
2023-03-06T07:36:39.655Z,2.38
2023-03-06T07:41:31.287Z,1.77
2023-03-06T07:46:22.975Z,2.08
2023-03-06T07:51:20.592Z,1.90
2023-03-06T07:56:12.853Z,3.13
2023-03-06T08:01:12.610Z,2.17
2023-03-06T08:06:13.329Z,2.03
2023-03-06T08:11:05.692Z,2.10
2023-03-06T08:15:57.424Z,1.55
2023-03-06T08:20:49.096Z,1.30
2023-03-06T08:25:40.704Z,1.55
2023-03-06T08:30:32.328Z,1.88
2023-03-06T08:35:23.934Z,2.63
2023-03-06T08:40:15.717Z,1.52
2023-03-06T08:45:08.222Z,1.92
2023-03-06T08:50:00.802Z,6.88
2023-03-06T08:54:52.556Z,2.38
2023-03-06T08:59:44.194Z,2.05
2023-03-06T09:04:35.834Z,2.05
2023-03-06T09:09:27.474Z,2.70
2023-03-06T09:14:19.135Z,1.85
2023-03-06T09:19:10.833Z,2.75
2023-03-06T09:24:02.519Z,2.45
2023-03-06T09:28:54.741Z,1.52
2023-03-06T09:33:47.383Z,1.73
2023-03-06T09:38:39.035Z,2.65
2023-03-06T09:43:42.326Z,2.97
2023-03-06T09:49:01.065Z,1.73
2023-03-06T09:54:05.116Z,1.23
2023-03-06T09:59:07.494Z,1.60
2023-03-06T10:04:27.815Z,0.95
2023-03-06T10:09:31.470Z,2.40
2023-03-06T10:14:40.255Z,1.02
2023-03-06T10:19:34.790Z,1.88
2023-03-06T10:24:45.284Z,1.30
2023-03-06T10:30:18.359Z,0.90
2023-03-06T10:35:21.802Z,0.90
2023-03-06T10:40:23.862Z,1.75
2023-03-06T10:45:17.428Z,2.15
2023-03-06T10:50:29.018Z,2.00
2023-03-06T10:55:39.026Z,1.88
2023-03-06T11:00:38.157Z,1.30
2023-03-06T11:05:29.985Z,2.13
2023-03-06T11:10:23.350Z,1.38
2023-03-06T11:15:15.080Z,1.08
2023-03-06T11:20:20.577Z,2.00
2023-03-06T11:25:16.577Z,1.17
2023-03-06T11:30:24.182Z,2.10
2023-03-06T11:35:59.457Z,0.73
2023-03-06T11:41:01.574Z,0.93
2023-03-06T11:46:07.192Z,0.50
2023-03-06T11:51:11.648Z,0.77
2023-03-06T11:56:15.850Z,4.68
2023-03-06T12:01:35.257Z,3.95
2023-03-06T12:06:36.029Z,3.05
2023-03-06T12:11:44.267Z,2.05
2023-03-06T12:17:13.538Z,0.85
2023-03-06T12:22:21.151Z,0.75
2023-03-06T12:27:23.238Z,1.67
2023-03-06T12:32:35.329Z,1.73
2023-03-06T12:37:47.723Z,1.15
2023-03-06T12:43:13.327Z,1.95
2023-03-06T12:48:15.024Z,0.50
2023-03-06T12:53:14.885Z,0.68
2023-03-06T12:58:28.295Z,0.93
2023-03-06T13:03:30.731Z,0.73
2023-03-06T13:08:44.257Z,0.40
2023-03-06T13:13:47.354Z,0.17
2023-03-06T13:18:41.948Z,0.70
2023-03-06T13:23:33.555Z,0.80
2023-03-06T13:28:51.566Z,2.97
2023-03-06T13:33:43.227Z,0.93
2023-03-06T13:38:40.810Z,0.70
2023-03-06T13:43:42.464Z,1.30
2023-03-06T13:48:45.113Z,0.63
2023-03-06T13:54:10.736Z,1.75
2023-03-06T13:59:17.426Z,0.30
2023-03-06T14:04:27.610Z,2.03
2023-03-06T14:09:26.919Z,1.40
2023-03-06T14:14:27.295Z,0.85
2023-03-06T14:19:19.586Z,1.58
2023-03-06T14:24:16.946Z,0.82
2023-03-06T14:29:23.011Z,0.17
2023-03-06T14:34:20.725Z,0.30
2023-03-06T14:39:35.509Z,0.45
2023-03-06T14:44:27.113Z,4.03
2023-03-06T14:49:21.164Z,1.25
2023-03-06T14:54:28.757Z,1.08
2023-03-06T14:59:29.883Z,0.73
2023-03-06T15:04:48.337Z,1.80
2023-03-06T15:09:44.822Z,1.58
2023-03-06T15:14:39.127Z,1.85
2023-03-06T15:19:40.472Z,1.73
2023-03-06T15:24:36.794Z,1.65
2023-03-06T15:29:28.525Z,3.22
2023-03-06T15:34:25.300Z,0.52
2023-03-06T15:39:40.089Z,0.50
2023-03-06T15:44:32.906Z,1.40
2023-03-06T15:49:25.095Z,0.77
2023-03-06T15:54:16.803Z,2.15
2023-03-06T15:59:17.009Z,1.83
2023-03-06T16:04:08.648Z,0.65
2023-03-06T16:09:00.259Z,1.95
2023-03-06T16:13:52.687Z,1.00
2023-03-06T16:18:44.313Z,0.77
2023-03-06T16:23:38.890Z,1.90
2023-03-06T16:28:34.728Z,1.55
2023-03-06T16:33:26.528Z,1.92
2023-03-06T16:38:18.118Z,3.40
2023-03-06T16:43:10.772Z,3.28
2023-03-06T16:48:02.470Z,0.93
2023-03-06T16:52:55.713Z,2.35
2023-03-06T16:57:47.610Z,5.43
2023-03-06T17:02:39.587Z,3.55
2023-03-06T17:07:33.511Z,1.73
2023-03-06T17:12:25.241Z,3.47
2023-03-06T17:17:17.187Z,3.72
2023-03-06T17:22:08.815Z,3.42
2023-03-06T17:27:00.431Z,4.10
2023-03-06T17:31:52.024Z,5.32
2023-03-06T17:36:44.109Z,2.85
2023-03-06T17:41:35.787Z,3.28
2023-03-06T17:46:27.700Z,3.13
2023-03-06T17:51:19.409Z,4.30
2023-03-06T17:56:13.906Z,4.97
2023-03-06T18:01:17.685Z,5.70
2023-03-06T18:06:09.629Z,5.75
2023-03-06T18:11:06.056Z,5.38
2023-03-06T18:15:57.731Z,6.00
2023-03-06T18:20:49.705Z,6.65
2023-03-06T18:25:41.654Z,6.32
2023-03-06T18:30:37.492Z,10.57
2023-03-06T18:35:29.245Z,8.60
2023-03-06T18:40:20.935Z,10.40
2023-03-06T18:45:12.962Z,5.65
2023-03-06T18:50:05.143Z,6.95
2023-03-06T18:54:56.996Z,5.45
2023-03-06T18:59:48.658Z,4.40
2023-03-06T19:04:40.343Z,6.97
2023-03-06T19:09:32.017Z,3.72
2023-03-06T19:14:23.658Z,8.77
2023-03-06T19:19:15.414Z,3.15
2023-03-06T19:24:13.284Z,4.25
2023-03-06T19:29:04.953Z,3.13
2023-03-06T19:33:57.259Z,4.18
2023-03-06T19:38:52.688Z,3.72
2023-03-06T19:43:44.335Z,4.15
2023-03-06T19:48:35.970Z,5.75
2023-03-06T19:53:28.356Z,5.47
2023-03-06T19:58:20.026Z,7.20
2023-03-06T20:03:11.648Z,2.70
2023-03-06T20:08:03.530Z,5.65
2023-03-06T20:12:55.282Z,4.30
2023-03-06T20:17:46.932Z,7.32
2023-03-06T20:22:38.757Z,3.78
2023-03-06T20:27:30.435Z,1.75
2023-03-06T20:32:22.239Z,3.92
2023-03-06T20:37:13.849Z,1.50
2023-03-06T20:42:06.048Z,1.30
2023-03-06T20:46:58.032Z,1.98
2023-03-06T20:51:50.474Z,2.33
2023-03-06T20:56:44.954Z,3.00
2023-03-06T21:01:41.148Z,1.33
2023-03-06T21:06:33.600Z,0.95
2023-03-06T21:11:25.625Z,4.82
2023-03-06T21:16:20.556Z,2.65
2023-03-06T21:21:18.533Z,2.42
2023-03-06T21:26:15.718Z,2.20
2023-03-06T21:31:09.571Z,2.20
2023-03-06T21:36:01.480Z,2.88
2023-03-06T21:40:53.255Z,0.63
2023-03-06T21:45:46.292Z,0.93
2023-03-06T21:50:37.973Z,1.80
2023-03-06T21:55:29.627Z,2.08
2023-03-06T22:00:23.940Z,2.25
2023-03-06T22:05:16.122Z,2.30
2023-03-06T22:10:12.029Z,2.85
2023-03-06T22:15:05.025Z,4.78
2023-03-06T22:19:56.734Z,3.25
2023-03-06T22:24:48.563Z,3.28
2023-03-06T22:29:40.195Z,3.55
2023-03-06T22:34:32.315Z,8.77
2023-03-06T22:39:24.051Z,2.00
2023-03-06T22:44:18.970Z,3.33
2023-03-06T22:49:12.738Z,3.97
2023-03-06T22:54:05.665Z,2.65
2023-03-06T22:58:57.941Z,0.68
2023-03-06T23:03:52.121Z,1.67
2023-03-06T23:08:48.305Z,4.28
2023-03-06T23:13:40.160Z,4.55
2023-03-06T23:18:31.973Z,1.40
2023-03-06T23:23:23.667Z,2.80
2023-03-06T23:28:15.823Z,3.05
2023-03-06T23:33:08.344Z,1.80
2023-03-06T23:38:00.418Z,2.60
2023-03-06T23:42:52.797Z,1.40
2023-03-06T23:47:44.470Z,2.90
2023-03-06T23:52:36.557Z,1.95
2023-03-06T23:57:29.521Z,2.25
